Posh Sincero — 3EC07 — position and weather

sailwx.info

Track history (hours):
 
Tides and Currents Weather Stations Pressure Air Temp Water Temp Dewpoint Dewpoint Depression Visibility Wind Speed Wind Dir Waves Ship Positions

Posh Sincero

Last reported at 2017-Oct-19 14:51 UTC. Time now 2017-Nov-19 01:15 UTC.
Position N 04°28' W 002°30'.
Warning: this ship's position is 30 days out of date.

Length 74 m; draft 4.9 m.

Type: Other ship. MMSI: 357667000.

Date/timePositionNaut miles runAvg speedWind from/ knotsBaromVisibWave heightAir tempDewpointWater temp
2017-Oct-19 14:51N 04°28' W 002°30'0 0.6
2017-Oct-19 14:29N 04°28' W 002°30'0 0.5
2017-Oct-19 14:00N 04°28' W 002°30'0 0.4
2017-Oct-19 13:29N 04°28' W 002°30'0 0.4
2017-Oct-19 12:59N 04°28' W 002°30'0 0.5
2017-Oct-19 12:30N 04°29' W 002°29'0 0.4
2017-Oct-19 12:00N 04°29' W 002°29'0 0.3
2017-Oct-19 11:27N 04°29' W 002°29'0 0.3
2017-Oct-19 10:58N 04°29' W 002°29'  
2017-Oct-16 23:50N 04°34' W 002°03'2 5.0
2017-Oct-16 23:29N 04°35' W 002°02'2 4.7
2017-Oct-16 22:59N 04°35' W 001°59'3 5.1
2017-Oct-16 22:22N 04°37' W 001°57'5 5.1
2017-Oct-16 21:23N 04°40' W 001°53'2 5.4
2017-Oct-16 20:59N 04°41' W 001°51'3 5.3
2017-Oct-16 20:30N 04°42' W 001°49'3 5.1
2017-Oct-16 20:00N 04°44' W 001°46'3 5.7
2017-Oct-16 19:30N 04°46' W 001°45'3 5.2
2017-Oct-16 18:59N 04°49' W 001°44'3 5.0
2017-Oct-16 18:29N 04°51' W 001°43'3 5.4
2017-Oct-16 17:59N 04°54' W 001°43'1 2.5
2017-Oct-16 17:30N 04°53' W 001°45'0 0.0
2017-Oct-16 17:00N 04°53' W 001°45'0 0.0
2017-Oct-16 16:30N 04°53' W 001°45'0 0.0
2017-Oct-16 16:00N 04°53' W 001°45'0 0.0
2017-Oct-16 15:30N 04°53' W 001°45'0 0.0
2017-Oct-16 15:00N 04°53' W 001°45'0 0.0
2017-Oct-16 14:30N 04°53' W 001°45'0 0.2
2017-Oct-16 13:30N 04°53' W 001°44'0 0.0
2017-Oct-16 13:00N 04°53' W 001°44'0 0.0
2017-Oct-16 12:30N 04°53' W 001°44'0 0.0
2017-Oct-16 12:00N 04°53' W 001°44'0 0.0
2017-Oct-16 11:30N 04°53' W 001°44'0 0.0
2017-Oct-16 11:00N 04°53' W 001°44'0 0.0
2017-Oct-16 10:30N 04°53' W 001°44'0 0.0
2017-Oct-16 09:57N 04°53' W 001°44'  
2017-Oct-13 16:50N 04°32' W 002°14'2 6.8
2017-Oct-13 16:29N 04°32' W 002°16'3 6.8
2017-Oct-13 16:00N 04°31' W 002°19'3 6.6
2017-Oct-13 15:29N 04°31' W 002°23'3 6.6
2017-Oct-13 14:59N 04°30' W 002°26'3 6.6
2017-Oct-13 14:29N 04°30' W 002°29'3 5.4
2017-Oct-13 13:59N 04°28' W 002°32'1 1.4
2017-Oct-13 13:30N 04°29' W 002°31'1 1.3
2017-Oct-13 13:00N 04°30' W 002°31'1 1.3
2017-Oct-13 12:29N 04°30' W 002°31'0 0.9
2017-Oct-13 11:59N 04°31' W 002°31'0 0.9
2017-Oct-13 11:30N 04°31' W 002°30'1 1.2
2017-Oct-13 11:00N 04°31' W 002°30'1 1.2
2017-Oct-13 10:30N 04°31' W 002°29'0 0.5
2017-Oct-13 09:59N 04°32' W 002°29'1 1.8
2017-Oct-13 09:29N 04°31' W 002°30'1 1.8
2017-Oct-13 09:00N 04°30' W 002°30'0 1.0
2017-Oct-13 08:30N 04°30' W 002°30'1 1.3
2017-Oct-13 07:59N 04°31' W 002°29'1 1.3
2017-Oct-13 07:29N 04°31' W 002°29'0 0.4
2017-Oct-13 06:59N 04°31' W 002°29'1 1.7
2017-Oct-13 06:30N 04°30' W 002°29'1 1.8
2017-Oct-13 05:59N 04°30' W 002°29'1 1.8
2017-Oct-13 05:30N 04°29' W 002°29'0 0.4
2017-Oct-13 05:00N 04°28' W 002°29'1 1.1
2017-Oct-13 04:30N 04°29' W 002°29'1 1.1
2017-Oct-13 04:00N 04°30' W 002°29'1 1.1
2017-Oct-13 03:29N 04°30' W 002°29'1 1.0
2017-Oct-13 02:59N 04°31' W 002°29'0 0.4
2017-Oct-13 02:29N 04°30' W 002°29'1 1.9
2017-Oct-13 02:00N 04°30' W 002°29'1 2.0
2017-Oct-13 01:30N 04°29' W 002°30'0 0.5
2017-Oct-13 01:00N 04°28' W 002°30'1 1.1
2017-Oct-13 00:29N 04°29' W 002°29'1 1.0
2017-Oct-12 23:59N 04°29' W 002°29'1 1.0
2017-Oct-12 23:29N 04°30' W 002°29'1 1.2
2017-Oct-12 23:00N 04°30' W 002°30'1 1.3
2017-Oct-12 22:30N 04°29' W 002°30'1 1.2
2017-Oct-12 22:00N 04°29' W 002°31'0 0.0
2017-Oct-12 21:30N 04°29' W 002°31'0 0.0
2017-Oct-12 20:59N 04°29' W 002°31'0 0.3
2017-Oct-12 20:29N 04°29' W 002°30'0 0.1
2017-Oct-12 20:00N 04°29' W 002°30'0 0.6
2017-Oct-12 19:30N 04°29' W 002°30'2 3.0
2017-Oct-12 18:59N 04°30' W 002°29'1 1.4
2017-Oct-12 18:29N 04°30' W 002°30'1 1.5
2017-Oct-12 17:59N 04°29' W 002°30'1 1.1
2017-Oct-12 17:29N 04°29' W 002°30'1 1.1
2017-Oct-12 17:00N 04°30' W 002°29'1 1.1
2017-Oct-12 16:30N 04°30' W 002°29'1 1.4
2017-Oct-12 16:00N 04°31' W 002°29'1 1.6
2017-Oct-12 15:30N 04°30' W 002°29'1 2.7
2017-Oct-12 14:59N 04°29' W 002°30'1 2.7
2017-Oct-12 14:29N 04°28' W 002°30'1 2.4
2017-Oct-12 14:00N 04°26' W 002°30'0 0.3
2017-Oct-12 13:30N 04°26' W 002°30'1 1.0
2017-Oct-12 12:59N 04°27' W 002°30'1 1.2
2017-Oct-12 12:29N 04°28' W 002°30'1 1.3
2017-Oct-12 11:55N 04°28' W 002°30'1 1.2
2017-Oct-12 11:29N 04°29' W 002°30'1 1.2
2017-Oct-12 11:00N 04°29' W 002°30'1 1.2
2017-Oct-12 10:30N 04°30' W 002°29'0 0.9
2017-Oct-12 09:59N 04°31' W 002°29'1 2.0
2017-Oct-12 09:29N 04°30' W 002°29'1 2.0
2017-Oct-12 08:59N 04°29' W 002°30'0 0.3
2017-Oct-12 08:30N 04°28' W 002°29'1 1.3
2017-Oct-12 08:00N 04°29' W 002°29'1 1.2
2017-Oct-12 07:30N 04°30' W 002°29'1 1.2
2017-Oct-12 06:59N 04°30' W 002°29'1 1.2
2017-Oct-12 06:29N 04°31' W 002°29'1 1.1
2017-Oct-12 06:00N 04°31' W 002°29'1 1.0
2017-Oct-12 05:30N 04°32' W 002°29'1 1.0
2017-Oct-12 04:59N 04°32' W 002°28'0 1.0
2017-Oct-12 04:29N 04°33' W 002°28'0 0.8
2017-Oct-12 04:00N 04°32' W 002°28'1 2.6
2017-Oct-12 03:30N 04°31' W 002°29'1 2.4
2017-Oct-12 02:59N 04°30' W 002°29'1 1.8
2017-Oct-12 02:29N 04°29' W 002°29'1 1.2
2017-Oct-12 01:59N 04°30' W 002°29'1 1.3
2017-Oct-12 01:30N 04°30' W 002°29'1 1.3
2017-Oct-12 00:59N 04°31' W 002°28'1 1.2
2017-Oct-12 00:29N 04°31' W 002°28'1 1.8
2017-Oct-11 23:59N 04°31' W 002°29'1 2.5
2017-Oct-11 23:30N 04°30' W 002°29'1 2.6
2017-Oct-11 23:00N 04°29' W 002°30'1 2.6
2017-Oct-11 22:30N 04°28' W 002°31'1 2.0
2017-Oct-11 22:00N 04°27' W 002°31'0 0.7
2017-Oct-11 21:29N 04°27' W 002°31'1 1.0
2017-Oct-11 20:59N 04°27' W 002°31'1 1.2
2017-Oct-11 20:30N 04°28' W 002°30'1 1.9
2017-Oct-11 20:00N 04°29' W 002°30'0 0.8
2017-Oct-11 19:30N 04°29' W 002°30'1 2.6
2017-Oct-11 19:00N 04°28' W 002°30'1 2.2
2017-Oct-11 18:29N 04°27' W 002°31'1 1.1
2017-Oct-11 17:59N 04°27' W 002°31'1 1.1
2017-Oct-11 17:30N 04°27' W 002°30'0 1.0
2017-Oct-11 17:00N 04°28' W 002°30'1 0.1
2017-Oct-10 23:59N 04°29' W 002°30'1 2.0
2017-Oct-10 23:29N 04°28' W 002°30'0 0.7
2017-Oct-10 23:00N 04°28' W 002°30'0 0.8
2017-Oct-10 22:30N 04°29' W 002°30'0 0.8
2017-Oct-10 22:00N 04°29' W 002°30'0 0.9
2017-Oct-10 21:30N 04°29' W 002°30'0 0.9
2017-Oct-10 20:59N 04°30' W 002°30'0 0.9
2017-Oct-10 20:29N 04°30' W 002°29'0 0.4
2017-Oct-10 19:59N 04°30' W 002°29'1 2.1
2017-Oct-10 19:30N 04°29' W 002°29'1 2.3
2017-Oct-10 19:00N 04°28' W 002°28'0 0.7
2017-Oct-10 18:29N 04°28' W 002°29'1 1.9
2017-Oct-10 17:59N 04°29' W 002°30'1 1.8
2017-Oct-10 17:28N 04°29' W 002°31'0 0.2
2017-Oct-10 17:00N 04°29' W 002°31'0 0.0
2017-Oct-10 16:30N 04°29' W 002°31'0 0.0
2017-Oct-10 15:59N 04°29' W 002°31'0 0.1
2017-Oct-10 15:29N 04°29' W 002°31'0 0.1
2017-Oct-10 14:59N 04°29' W 002°30'0 0.1
2017-Oct-10 14:00N 04°29' W 002°30'0 0.0
2017-Oct-10 13:30N 04°29' W 002°30'0 0.0
2017-Oct-10 12:59N 04°29' W 002°30'0 0.0
2017-Oct-10 12:29N 04°29' W 002°30'0 0.0
2017-Oct-10 11:59N 04°29' W 002°30'0 0.1
2017-Oct-10 11:30N 04°29' W 002°30'0 0.0
2017-Oct-10 11:00N 04°29' W 002°30'0 0.1
2017-Oct-10 10:29N 04°29' W 002°30'0 0.0
2017-Oct-10 09:59N 04°29' W 002°30'0 0.0
2017-Oct-10 09:29N 04°29' W 002°30'0 0.0
2017-Oct-10 09:00N 04°29' W 002°30'0 0.0
2017-Oct-10 08:30N 04°29' W 002°30'0 0.0
2017-Oct-10 07:59N 04°29' W 002°30'0 0.0
2017-Oct-10 07:29N 04°29' W 002°30'0 0.7
2017-Oct-10 06:59N 04°29' W 002°30'1 1.3
2017-Oct-10 06:30N 04°29' W 002°30'2 3.8
2017-Oct-10 06:00N 04°30' W 002°28'2 4.2
2017-Oct-10 05:29N 04°30' W 002°26'2 4.7
2017-Oct-10 04:59N 04°31' W 002°23'2 4.9
2017-Oct-10 04:30N 04°31' W 002°21'3 5.1
2017-Oct-10 04:00N 04°31' W 002°18'3 5.8
2017-Oct-10 03:30N 04°32' W 002°16'3 5.9
2017-Oct-10 02:59N 04°32' W 002°13'3 5.8
2017-Oct-10 02:29N 04°33' W 002°10'3 5.7
2017-Oct-10 02:00N 04°34' W 002°07'3 5.9
2017-Oct-10 01:30N 04°34' W 002°04'21 5.8
2017-Oct-09 21:56N 04°44' W 001°46'4 5.2
2017-Oct-09 21:09N 04°48' W 001°44'2 5.6
2017-Oct-09 20:49N 04°50' W 001°44'2 5.4
2017-Oct-09 20:26N 04°52' W 001°43'  
Track history (hours):
 
Tides and Currents Weather Stations Pressure Air Temp Water Temp Dewpoint Dewpoint Depression Visibility Wind Speed Wind Dir Waves Ship Positions

Posh Sincero

Last reported at 2017-Oct-19 14:51 UTC. Time now 2017-Nov-19 01:15 UTC.
Position N 04°28' W 002°30'.
Warning: this ship's position is 30 days out of date.

Length 74 m; draft 4.9 m.

Type: Other ship. MMSI: 357667000.

Date/timePositionNaut miles runAvg speedWind from/ knotsBaromVisibWave heightAir tempDewpointWater temp
2017-Oct-19 14:51N 04°28' W 002°30'0 0.6
2017-Oct-19 14:29N 04°28' W 002°30'0 0.5
2017-Oct-19 14:00N 04°28' W 002°30'0 0.4
2017-Oct-19 13:29N 04°28' W 002°30'0 0.4
2017-Oct-19 12:59N 04°28' W 002°30'0 0.5
2017-Oct-19 12:30N 04°29' W 002°29'0 0.4
2017-Oct-19 12:00N 04°29' W 002°29'0 0.3
2017-Oct-19 11:27N 04°29' W 002°29'0 0.3
2017-Oct-19 10:58N 04°29' W 002°29'  
2017-Oct-16 23:50N 04°34' W 002°03'2 5.0
2017-Oct-16 23:29N 04°35' W 002°02'2 4.7
2017-Oct-16 22:59N 04°35' W 001°59'3 5.1
2017-Oct-16 22:22N 04°37' W 001°57'5 5.1
2017-Oct-16 21:23N 04°40' W 001°53'2 5.4
2017-Oct-16 20:59N 04°41' W 001°51'3 5.3
2017-Oct-16 20:30N 04°42' W 001°49'3 5.1
2017-Oct-16 20:00N 04°44' W 001°46'3 5.7
2017-Oct-16 19:30N 04°46' W 001°45'3 5.2
2017-Oct-16 18:59N 04°49' W 001°44'3 5.0
2017-Oct-16 18:29N 04°51' W 001°43'3 5.4
2017-Oct-16 17:59N 04°54' W 001°43'1 2.5
2017-Oct-16 17:30N 04°53' W 001°45'0 0.0
2017-Oct-16 17:00N 04°53' W 001°45'0 0.0
2017-Oct-16 16:30N 04°53' W 001°45'0 0.0
2017-Oct-16 16:00N 04°53' W 001°45'0 0.0
2017-Oct-16 15:30N 04°53' W 001°45'0 0.0
2017-Oct-16 15:00N 04°53' W 001°45'0 0.0
2017-Oct-16 14:30N 04°53' W 001°45'0 0.2
2017-Oct-16 13:30N 04°53' W 001°44'0 0.0
2017-Oct-16 13:00N 04°53' W 001°44'0 0.0
2017-Oct-16 12:30N 04°53' W 001°44'0 0.0
2017-Oct-16 12:00N 04°53' W 001°44'0 0.0
2017-Oct-16 11:30N 04°53' W 001°44'0 0.0
2017-Oct-16 11:00N 04°53' W 001°44'0 0.0
2017-Oct-16 10:30N 04°53' W 001°44'0 0.0
2017-Oct-16 09:57N 04°53' W 001°44'  
2017-Oct-13 16:50N 04°32' W 002°14'2 6.8
2017-Oct-13 16:29N 04°32' W 002°16'3 6.8
2017-Oct-13 16:00N 04°31' W 002°19'3 6.6
2017-Oct-13 15:29N 04°31' W 002°23'3 6.6
2017-Oct-13 14:59N 04°30' W 002°26'3 6.6
2017-Oct-13 14:29N 04°30' W 002°29'3 5.4
2017-Oct-13 13:59N 04°28' W 002°32'1 1.4
2017-Oct-13 13:30N 04°29' W 002°31'1 1.3
2017-Oct-13 13:00N 04°30' W 002°31'1 1.3
2017-Oct-13 12:29N 04°30' W 002°31'0 0.9
2017-Oct-13 11:59N 04°31' W 002°31'0 0.9
2017-Oct-13 11:30N 04°31' W 002°30'1 1.2
2017-Oct-13 11:00N 04°31' W 002°30'1 1.2
2017-Oct-13 10:30N 04°31' W 002°29'0 0.5
2017-Oct-13 09:59N 04°32' W 002°29'1 1.8
2017-Oct-13 09:29N 04°31' W 002°30'1 1.8
2017-Oct-13 09:00N 04°30' W 002°30'0 1.0
2017-Oct-13 08:30N 04°30' W 002°30'1 1.3
2017-Oct-13 07:59N 04°31' W 002°29'1 1.3
2017-Oct-13 07:29N 04°31' W 002°29'0 0.4
2017-Oct-13 06:59N 04°31' W 002°29'1 1.7
2017-Oct-13 06:30N 04°30' W 002°29'1 1.8
2017-Oct-13 05:59N 04°30' W 002°29'1 1.8
2017-Oct-13 05:30N 04°29' W 002°29'0 0.4
2017-Oct-13 05:00N 04°28' W 002°29'1 1.1
2017-Oct-13 04:30N 04°29' W 002°29'1 1.1
2017-Oct-13 04:00N 04°30' W 002°29'1 1.1
2017-Oct-13 03:29N 04°30' W 002°29'1 1.0
2017-Oct-13 02:59N 04°31' W 002°29'0 0.4
2017-Oct-13 02:29N 04°30' W 002°29'1 1.9
2017-Oct-13 02:00N 04°30' W 002°29'1 2.0
2017-Oct-13 01:30N 04°29' W 002°30'0 0.5
2017-Oct-13 01:00N 04°28' W 002°30'1 1.1
2017-Oct-13 00:29N 04°29' W 002°29'1 1.0
2017-Oct-12 23:59N 04°29' W 002°29'1 1.0
2017-Oct-12 23:29N 04°30' W 002°29'1 1.2
2017-Oct-12 23:00N 04°30' W 002°30'1 1.3
2017-Oct-12 22:30N 04°29' W 002°30'1 1.2
2017-Oct-12 22:00N 04°29' W 002°31'0 0.0
2017-Oct-12 21:30N 04°29' W 002°31'0 0.0
2017-Oct-12 20:59N 04°29' W 002°31'0 0.3
2017-Oct-12 20:29N 04°29' W 002°30'0 0.1
2017-Oct-12 20:00N 04°29' W 002°30'0 0.6
2017-Oct-12 19:30N 04°29' W 002°30'2 3.0
2017-Oct-12 18:59N 04°30' W 002°29'1 1.4
2017-Oct-12 18:29N 04°30' W 002°30'1 1.5
2017-Oct-12 17:59N 04°29' W 002°30'1 1.1
2017-Oct-12 17:29N 04°29' W 002°30'1 1.1
2017-Oct-12 17:00N 04°30' W 002°29'1 1.1
2017-Oct-12 16:30N 04°30' W 002°29'1 1.4
2017-Oct-12 16:00N 04°31' W 002°29'1 1.6
2017-Oct-12 15:30N 04°30' W 002°29'1 2.7
2017-Oct-12 14:59N 04°29' W 002°30'1 2.7
2017-Oct-12 14:29N 04°28' W 002°30'1 2.4
2017-Oct-12 14:00N 04°26' W 002°30'0 0.3
2017-Oct-12 13:30N 04°26' W 002°30'1 1.0
2017-Oct-12 12:59N 04°27' W 002°30'1 1.2
2017-Oct-12 12:29N 04°28' W 002°30'1 1.3
2017-Oct-12 11:55N 04°28' W 002°30'1 1.2
2017-Oct-12 11:29N 04°29' W 002°30'1 1.2
2017-Oct-12 11:00N 04°29' W 002°30'1 1.2
2017-Oct-12 10:30N 04°30' W 002°29'0 0.9
2017-Oct-12 09:59N 04°31' W 002°29'1 2.0
2017-Oct-12 09:29N 04°30' W 002°29'1 2.0
2017-Oct-12 08:59N 04°29' W 002°30'0 0.3
2017-Oct-12 08:30N 04°28' W 002°29'1 1.3
2017-Oct-12 08:00N 04°29' W 002°29'1 1.2
2017-Oct-12 07:30N 04°30' W 002°29'1 1.2
2017-Oct-12 06:59N 04°30' W 002°29'1 1.2
2017-Oct-12 06:29N 04°31' W 002°29'1 1.1
2017-Oct-12 06:00N 04°31' W 002°29'1 1.0
2017-Oct-12 05:30N 04°32' W 002°29'1 1.0
2017-Oct-12 04:59N 04°32' W 002°28'0 1.0
2017-Oct-12 04:29N 04°33' W 002°28'0 0.8
2017-Oct-12 04:00N 04°32' W 002°28'1 2.6
2017-Oct-12 03:30N 04°31' W 002°29'1 2.4
2017-Oct-12 02:59N 04°30' W 002°29'1 1.8
2017-Oct-12 02:29N 04°29' W 002°29'1 1.2
2017-Oct-12 01:59N 04°30' W 002°29'1 1.3
2017-Oct-12 01:30N 04°30' W 002°29'1 1.3
2017-Oct-12 00:59N 04°31' W 002°28'1 1.2
2017-Oct-12 00:29N 04°31' W 002°28'1 1.8
2017-Oct-11 23:59N 04°31' W 002°29'1 2.5
2017-Oct-11 23:30N 04°30' W 002°29'1 2.6
2017-Oct-11 23:00N 04°29' W 002°30'1 2.6
2017-Oct-11 22:30N 04°28' W 002°31'1 2.0
2017-Oct-11 22:00N 04°27' W 002°31'0 0.7
2017-Oct-11 21:29N 04°27' W 002°31'1 1.0
2017-Oct-11 20:59N 04°27' W 002°31'1 1.2
2017-Oct-11 20:30N 04°28' W 002°30'1 1.9
2017-Oct-11 20:00N 04°29' W 002°30'0 0.8
2017-Oct-11 19:30N 04°29' W 002°30'1 2.6
2017-Oct-11 19:00N 04°28' W 002°30'1 2.2
2017-Oct-11 18:29N 04°27' W 002°31'1 1.1
2017-Oct-11 17:59N 04°27' W 002°31'1 1.1
2017-Oct-11 17:30N 04°27' W 002°30'0 1.0
2017-Oct-11 17:00N 04°28' W 002°30'1 0.1
2017-Oct-10 23:59N 04°29' W 002°30'1 2.0
2017-Oct-10 23:29N 04°28' W 002°30'0 0.7
2017-Oct-10 23:00N 04°28' W 002°30'0 0.8
2017-Oct-10 22:30N 04°29' W 002°30'0 0.8
2017-Oct-10 22:00N 04°29' W 002°30'0 0.9
2017-Oct-10 21:30N 04°29' W 002°30'0 0.9
2017-Oct-10 20:59N 04°30' W 002°30'0 0.9
2017-Oct-10 20:29N 04°30' W 002°29'0 0.4
2017-Oct-10 19:59N 04°30' W 002°29'1 2.1
2017-Oct-10 19:30N 04°29' W 002°29'1 2.3
2017-Oct-10 19:00N 04°28' W 002°28'0 0.7
2017-Oct-10 18:29N 04°28' W 002°29'1 1.9
2017-Oct-10 17:59N 04°29' W 002°30'1 1.8
2017-Oct-10 17:28N 04°29' W 002°31'0 0.2
2017-Oct-10 17:00N 04°29' W 002°31'0 0.0
2017-Oct-10 16:30N 04°29' W 002°31'0 0.0
2017-Oct-10 15:59N 04°29' W 002°31'0 0.1
2017-Oct-10 15:29N 04°29' W 002°31'0 0.1
2017-Oct-10 14:59N 04°29' W 002°30'0 0.1
2017-Oct-10 14:00N 04°29' W 002°30'0 0.0
2017-Oct-10 13:30N 04°29' W 002°30'0 0.0
2017-Oct-10 12:59N 04°29' W 002°30'0 0.0
2017-Oct-10 12:29N 04°29' W 002°30'0 0.0
2017-Oct-10 11:59N 04°29' W 002°30'0 0.1
2017-Oct-10 11:30N 04°29' W 002°30'0 0.0
2017-Oct-10 11:00N 04°29' W 002°30'0 0.1
2017-Oct-10 10:29N 04°29' W 002°30'0 0.0
2017-Oct-10 09:59N 04°29' W 002°30'0 0.0
2017-Oct-10 09:29N 04°29' W 002°30'0 0.0
2017-Oct-10 09:00N 04°29' W 002°30'0 0.0
2017-Oct-10 08:30N 04°29' W 002°30'0 0.0
2017-Oct-10 07:59N 04°29' W 002°30'0 0.0
2017-Oct-10 07:29N 04°29' W 002°30'0 0.7
2017-Oct-10 06:59N 04°29' W 002°30'1 1.3
2017-Oct-10 06:30N 04°29' W 002°30'2 3.8
2017-Oct-10 06:00N 04°30' W 002°28'2 4.2
2017-Oct-10 05:29N 04°30' W 002°26'2 4.7
2017-Oct-10 04:59N 04°31' W 002°23'2 4.9
2017-Oct-10 04:30N 04°31' W 002°21'3 5.1
2017-Oct-10 04:00N 04°31' W 002°18'3 5.8
2017-Oct-10 03:30N 04°32' W 002°16'3 5.9
2017-Oct-10 02:59N 04°32' W 002°13'3 5.8
2017-Oct-10 02:29N 04°33' W 002°10'3 5.7
2017-Oct-10 02:00N 04°34' W 002°07'3 5.9
2017-Oct-10 01:30N 04°34' W 002°04'21 5.8
2017-Oct-09 21:56N 04°44' W 001°46'4 5.2
2017-Oct-09 21:09N 04°48' W 001°44'2 5.6
2017-Oct-09 20:49N 04°50' W 001°44'2 5.4
2017-Oct-09 20:26N 04°52' W 001°43'  

Dump ship's entire track history